PILOTS ONLINE: 313    ATC ONLINE: 32

KVBG

Vandenberg Air Force Base

Location

City Lompoc
Country  United States
Latitude 34° 44' 14" N
Longitude 120° 35' 2" W
Elevation 369 ft
Type Large Airport

Map

Weather

METAR
2014/10/26 03:55
KVBG 260355Z AUTO 33010KT 10SM CLR 16/14 A3009 RMK AO2 SLP180 T01610144 TSNO $ 
TAF
2014/10/25 19:24
TAF KVBG 2519/2620 28010KT 8000 -SHRA BKN040 610302 QNH3001INS 
      BECMG 2601/2602 32009KT 6000 -SHRA BR BKN007 OVC010 610302 QNH3002INS 
      BECMG 2602/2603 32006KT 4800 BR OVC005 610302 QNH3004INS 
      BECMG 2604/2605 33006KT 0800 FG VV002 610302 QNH3005INS 
      BECMG 2605/2606 35009KT 4800 BR BKN005 610302 QNH3006INS 
      BECMG 2607/2608 35009KT 8000 BR FEW005 QNH3008INS 
      BECMG 2613/2614 36012KT 9999 NSW SCT030 QNH3008INS 
      BECMG 2617/2618 33015G25KT 9999 SCT030 QNH3002INS TX20/2520Z TN11/2611Z 
      AMD 251906 LAST NO 
      AMD AFT 2519 NEXT 2714

Runways

12/30 15000 ft / 200 ft

Outbound flights

Callsign Flying to Pilot ATD/STD ETA Aircraft

Inbound flights

Callsign Flying from Pilot ATD ETA Aircraft